createdAt,value
2023-05-13T00:00:12.264Z,101459.05
2023-05-13T00:02:40.523Z,101456.69
2023-05-13T00:05:08.295Z,101462.64
2023-05-13T00:07:35.662Z,101459.30
2023-05-13T00:10:03.023Z,101463.20
2023-05-13T00:12:31.550Z,101463.56
2023-05-13T00:14:58.844Z,101467.56
2023-05-13T00:17:26.235Z,101469.17
2023-05-13T00:19:53.624Z,101468.83
2023-05-13T00:22:20.978Z,101466.30
2023-05-13T00:24:48.314Z,101467.20
2023-05-13T00:27:15.596Z,101465.60
2023-05-13T00:29:44.421Z,101465.29
2023-05-13T00:32:11.775Z,101470.20
2023-05-13T00:34:39.273Z,101467.39
2023-05-13T00:37:10.530Z,101467.23
2023-05-13T00:39:38.544Z,101472.54
2023-05-13T00:42:08.309Z,101471.40
2023-05-13T00:44:37.034Z,101474.75
2023-05-13T00:47:10.408Z,101470.79
2023-05-13T00:49:37.499Z,101472.80
2023-05-13T00:52:05.573Z,101469.94
2023-05-13T00:54:32.944Z,101472.47
2023-05-13T00:57:01.034Z,101473.15
2023-05-13T00:59:30.521Z,101474.21
2023-05-13T01:02:21.114Z,101477.23
2023-05-13T01:05:19.491Z,101476.69
2023-05-13T01:08:27.216Z,101473.27
2023-05-13T01:11:03.227Z,101473.17
2023-05-13T01:13:37.269Z,101471.98
2023-05-13T01:16:30.547Z,101469.72
2023-05-13T01:19:00.044Z,101466.06
2023-05-13T01:21:34.691Z,101470.00
2023-05-13T01:24:03.019Z,101468.02
2023-05-13T01:26:32.174Z,101471.59
2023-05-13T01:28:59.709Z,101469.53
2023-05-13T01:31:32.642Z,101470.30
2023-05-13T01:34:00.862Z,101468.10
2023-05-13T01:36:28.914Z,101469.40
2023-05-13T01:38:56.251Z,101468.55
2023-05-13T01:41:24.757Z,101468.55
2023-05-13T01:43:52.708Z,101468.00
2023-05-13T01:46:19.857Z,101470.78
2023-05-13T01:48:51.083Z,101476.71
2023-05-13T01:51:21.956Z,101478.49
2023-05-13T01:53:50.654Z,101478.09
2023-05-13T01:56:19.653Z,101474.17
2023-05-13T01:58:48.770Z,101475.36
2023-05-13T02:01:15.946Z,101475.84
2023-05-13T02:03:45.139Z,101481.48
2023-05-13T02:06:14.608Z,101478.90
2023-05-13T02:08:41.754Z,101477.27
2023-05-13T02:11:09.017Z,101475.13
2023-05-13T02:13:37.304Z,101475.56
2023-05-13T02:16:04.541Z,101476.77
2023-05-13T02:18:32.799Z,101480.96
2023-05-13T02:20:59.884Z,101484.98
2023-05-13T02:23:28.006Z,101484.73
2023-05-13T02:25:55.978Z,101483.86
2023-05-13T02:28:23.111Z,101482.20
2023-05-13T02:30:50.111Z,101482.59
2023-05-13T02:33:17.155Z,101483.70
2023-05-13T02:35:44.346Z,101483.33
2023-05-13T02:38:12.493Z,101486.52
2023-05-13T02:40:39.529Z,101479.90
2023-05-13T02:43:06.620Z,101481.58
2023-05-13T02:45:42.646Z,101480.40
2023-05-13T02:48:13.763Z,101479.90
2023-05-13T02:50:41.335Z,101484.29
2023-05-13T02:53:11.302Z,101482.41
2023-05-13T02:55:43.036Z,101477.27
2023-05-13T02:58:10.118Z,101480.01
2023-05-13T03:00:37.219Z,101481.99
2023-05-13T03:03:04.418Z,101489.61
2023-05-13T03:05:31.801Z,101488.59
2023-05-13T03:07:59.075Z,101490.30
2023-05-13T03:10:26.269Z,101491.39
2023-05-13T03:12:53.359Z,101498.14
2023-05-13T03:15:20.576Z,101502.25
2023-05-13T03:17:47.834Z,101502.39
2023-05-13T03:20:15.484Z,101499.98
2023-05-13T03:22:42.815Z,101497.84
2023-05-13T03:25:11.746Z,101496.45
2023-05-13T03:27:46.263Z,101498.80
2023-05-13T03:30:14.360Z,101496.85
2023-05-13T03:32:49.348Z,101498.38
2023-05-13T03:35:16.488Z,101498.54
2023-05-13T03:37:43.792Z,101498.56
2023-05-13T03:40:11.356Z,101493.33
2023-05-13T03:42:38.790Z,101495.89
2023-05-13T03:45:06.527Z,101503.82
2023-05-13T03:47:33.844Z,101500.98
2023-05-13T03:50:03.020Z,101499.30
2023-05-13T03:52:35.866Z,101499.69
2023-05-13T03:55:03.205Z,101502.58
2023-05-13T03:57:30.308Z,101503.27
2023-05-13T03:59:57.528Z,101501.02
2023-05-13T04:02:24.976Z,101499.98
2023-05-13T04:04:52.354Z,101502.13
2023-05-13T04:07:19.539Z,101504.30
2023-05-13T04:09:46.728Z,101509.83
2023-05-13T04:12:14.850Z,101515.65
2023-05-13T04:14:41.994Z,101518.94
2023-05-13T04:17:09.485Z,101516.58
2023-05-13T04:19:36.810Z,101525.11
2023-05-13T04:22:04.072Z,101524.41
2023-05-13T04:24:31.850Z,101521.71
2023-05-13T04:27:01.190Z,101524.98
2023-05-13T04:29:29.620Z,101522.83
2023-05-13T04:31:57.162Z,101526.00
2023-05-13T04:34:24.836Z,101530.38
2023-05-13T04:36:52.803Z,101525.45
2023-05-13T04:39:20.147Z,101528.64
2023-05-13T04:41:47.371Z,101528.98
2023-05-13T04:44:14.984Z,101527.27
2023-05-13T04:46:44.994Z,101527.58
2023-05-13T04:49:12.178Z,101527.09
2023-05-13T04:51:40.115Z,101521.33
2023-05-13T04:54:08.157Z,101524.08
2023-05-13T04:56:38.840Z,101519.96
2023-05-13T04:59:06.006Z,101515.81
2023-05-13T05:01:33.262Z,101513.55
2023-05-13T05:04:00.500Z,101517.45
2023-05-13T05:06:27.698Z,101514.68
2023-05-13T05:08:55.368Z,101516.80
2023-05-13T05:11:24.256Z,101515.00
2023-05-13T05:13:52.260Z,101514.09
2023-05-13T05:16:19.918Z,101513.16
2023-05-13T05:18:47.524Z,101514.29
2023-05-13T05:21:18.447Z,101515.80
2023-05-13T05:23:46.092Z,101515.94
2023-05-13T05:26:13.143Z,101515.99
2023-05-13T05:28:43.366Z,101516.00
2023-05-13T05:31:10.760Z,101519.44
2023-05-13T05:33:39.685Z,101518.56
2023-05-13T05:36:07.300Z,101517.88
2023-05-13T05:38:35.066Z,101517.18
2023-05-13T05:41:03.110Z,101518.55
2023-05-13T05:43:31.045Z,101515.17
2023-05-13T05:45:58.243Z,101519.34
2023-05-13T05:48:28.875Z,101520.09
2023-05-13T05:51:16.176Z,101526.51
2023-05-13T05:53:44.317Z,101521.46
2023-05-13T05:56:13.370Z,101524.98
2023-05-13T05:58:40.824Z,101529.98
2023-05-13T06:01:08.081Z,101526.14
2023-05-13T06:03:35.324Z,101530.79
2023-05-13T06:06:02.891Z,101533.44
2023-05-13T06:08:31.269Z,101531.09
2023-05-13T06:10:58.568Z,101535.73
2023-05-13T06:13:26.461Z,101532.65
2023-05-13T06:15:53.739Z,101534.88
2023-05-13T06:18:21.353Z,101532.86
2023-05-13T06:20:48.515Z,101531.59
2023-05-13T06:23:15.963Z,101535.20
2023-05-13T06:25:43.254Z,101542.08
2023-05-13T06:28:11.124Z,101542.38
2023-05-13T06:30:38.985Z,101540.07
2023-05-13T06:33:06.329Z,101542.03
2023-05-13T06:35:33.563Z,101537.78
2023-05-13T06:38:03.655Z,101531.88
2023-05-13T06:40:31.363Z,101534.70
2023-05-13T06:42:58.559Z,101537.92
2023-05-13T06:45:30.594Z,101532.38
2023-05-13T06:47:58.576Z,101529.77
2023-05-13T06:50:25.732Z,101533.41
2023-05-13T06:52:52.702Z,101536.75
2023-05-13T06:55:20.058Z,101538.30
2023-05-13T06:57:47.532Z,101539.14
2023-05-13T07:00:15.462Z,101532.02
2023-05-13T07:02:42.694Z,101532.48
2023-05-13T07:05:12.014Z,101527.70
2023-05-13T07:07:39.337Z,101530.61
2023-05-13T07:10:06.817Z,101529.66
2023-05-13T07:12:34.612Z,101530.90
2023-05-13T07:15:01.854Z,101533.34
2023-05-13T07:17:29.246Z,101528.67
2023-05-13T07:20:01.431Z,101522.85
2023-05-13T07:22:30.292Z,101526.45
2023-05-13T07:24:59.831Z,101523.21
2023-05-13T07:27:27.268Z,101523.33
2023-05-13T07:29:54.377Z,101516.59
2023-05-13T07:32:21.443Z,101524.56
2023-05-13T07:34:48.490Z,101520.84
2023-05-13T07:37:15.525Z,101510.67
2023-05-13T07:39:42.602Z,101508.34
2023-05-13T07:42:10.332Z,101508.51
2023-05-13T07:44:37.275Z,101510.64
2023-05-13T07:47:04.388Z,101508.06
2023-05-13T07:49:31.489Z,101512.55
2023-05-13T07:51:58.636Z,101507.84
2023-05-13T07:54:25.740Z,101514.26
2023-05-13T07:56:52.937Z,101501.67
2023-05-13T07:59:20.356Z,101503.06
2023-05-13T08:01:47.437Z,101492.41
2023-05-13T08:04:14.644Z,101495.32
2023-05-13T08:06:41.886Z,101494.38
2023-05-13T08:09:09.979Z,101499.27
2023-05-13T08:11:37.088Z,101494.74
2023-05-13T08:14:05.161Z,101494.77
2023-05-13T08:16:32.223Z,101494.64
2023-05-13T08:18:59.457Z,101494.13
2023-05-13T08:21:26.563Z,101493.61
2023-05-13T08:23:54.044Z,101485.45
2023-05-13T08:26:21.071Z,101481.98
2023-05-13T08:28:48.836Z,101484.96
2023-05-13T08:31:17.531Z,101481.15
2023-05-13T08:33:47.746Z,101486.35
2023-05-13T08:36:14.965Z,101474.98
2023-05-13T08:38:43.843Z,101480.73
2023-05-13T08:41:17.051Z,101475.70
2023-05-13T08:43:44.202Z,101461.63
2023-05-13T08:46:12.063Z,101462.39
2023-05-13T08:48:39.718Z,101471.22
2023-05-13T08:51:06.962Z,101466.42
2023-05-13T08:53:34.700Z,101463.44
2023-05-13T08:56:01.816Z,101453.27
2023-05-13T08:58:28.924Z,101451.80
2023-05-13T09:00:55.990Z,101446.32
2023-05-13T09:03:23.121Z,101451.09
2023-05-13T09:05:50.301Z,101448.27
2023-05-13T09:08:17.389Z,101448.45
2023-05-13T09:10:44.540Z,101439.13
2023-05-13T09:13:12.057Z,101442.15
2023-05-13T09:15:41.259Z,101436.03
2023-05-13T09:18:08.419Z,101429.25
2023-05-13T09:20:35.850Z,101427.83
2023-05-13T09:23:06.704Z,101421.30
2023-05-13T09:25:33.967Z,101426.12
2023-05-13T09:28:01.783Z,101419.14
2023-05-13T09:30:29.514Z,101422.54
2023-05-13T09:33:12.331Z,101424.10
2023-05-13T09:35:42.439Z,101412.06
2023-05-13T09:38:19.488Z,101417.27
2023-05-13T09:40:53.419Z,101411.44
2023-05-13T09:43:23.066Z,101400.78
2023-05-13T09:45:54.409Z,101401.00
2023-05-13T09:48:22.732Z,101396.49
2023-05-13T09:50:50.208Z,101399.95
2023-05-13T09:53:17.347Z,101389.19
2023-05-13T09:55:45.243Z,101395.69
2023-05-13T09:58:12.833Z,101394.95
2023-05-13T10:00:41.123Z,101393.29
2023-05-13T10:03:08.959Z,101383.05
2023-05-13T10:05:36.135Z,101380.16
2023-05-13T10:08:03.387Z,101371.36
2023-05-13T10:10:31.027Z,101373.98
2023-05-13T10:13:06.901Z,101376.39
2023-05-13T10:15:37.444Z,101377.64
2023-05-13T10:18:07.234Z,101374.17
2023-05-13T10:20:34.743Z,101375.61
2023-05-13T10:23:08.062Z,101369.56
2023-05-13T10:25:38.856Z,101370.80
2023-05-13T10:28:17.011Z,101369.04
2023-05-13T10:30:44.475Z,101364.48
2023-05-13T10:33:11.769Z,101363.95
2023-05-13T10:35:41.925Z,101372.98
2023-05-13T10:38:32.624Z,101368.11
2023-05-13T10:40:59.707Z,101377.39
2023-05-13T10:43:30.584Z,101366.68
2023-05-13T10:46:01.564Z,101362.12
2023-05-13T10:48:39.266Z,101365.52
2023-05-13T10:51:08.323Z,101369.67
2023-05-13T10:53:56.078Z,101362.19
2023-05-13T10:56:25.020Z,101375.52
2023-05-13T10:59:02.754Z,101362.83
2023-05-13T11:01:30.167Z,101357.75
2023-05-13T11:03:58.635Z,101356.31
2023-05-13T11:06:42.373Z,101354.89
2023-05-13T11:09:13.487Z,101357.41
2023-05-13T11:11:40.805Z,101358.48
2023-05-13T11:14:10.757Z,101358.02
2023-05-13T11:16:38.250Z,101354.23
2023-05-13T11:19:11.183Z,101350.45
2023-05-13T11:21:41.398Z,101343.99
2023-05-13T11:24:08.699Z,101340.81
2023-05-13T11:26:45.419Z,101347.81
2023-05-13T11:29:12.642Z,101339.38
2023-05-13T11:31:50.145Z,101344.66
2023-05-13T11:34:17.896Z,101343.56
2023-05-13T11:36:52.138Z,101339.89
2023-05-13T11:39:19.853Z,101335.83
2023-05-13T11:41:47.606Z,101338.18
2023-05-13T11:44:15.697Z,101346.25
2023-05-13T11:47:09.233Z,101336.70
2023-05-13T11:49:36.680Z,101331.07
2023-05-13T11:52:04.654Z,101321.45
2023-05-13T11:54:31.983Z,101322.57
2023-05-13T11:56:59.218Z,101322.69
2023-05-13T11:59:27.901Z,101320.66
2023-05-13T12:02:01.428Z,101327.65
2023-05-13T12:04:29.876Z,101321.11
2023-05-13T12:06:57.417Z,101326.58
2023-05-13T12:09:25.065Z,101320.14
2023-05-13T12:11:52.959Z,101312.77
2023-05-13T12:14:20.302Z,101311.51
2023-05-13T12:16:47.618Z,101313.02
2023-05-13T12:19:14.860Z,101314.09
2023-05-13T12:21:42.340Z,101310.73
2023-05-13T12:24:22.163Z,101307.06
2023-05-13T12:26:49.411Z,101308.27
2023-05-13T12:29:16.587Z,101312.02
2023-05-13T12:31:44.300Z,101309.02
2023-05-13T12:34:11.540Z,101305.57
2023-05-13T12:36:38.981Z,101308.20
2023-05-13T12:39:07.079Z,101306.59
2023-05-13T12:41:35.282Z,101303.94
2023-05-13T12:44:03.550Z,101297.66
2023-05-13T12:46:30.840Z,101304.53
2023-05-13T12:49:01.947Z,101296.85
2023-05-13T12:51:30.094Z,101287.00
2023-05-13T12:53:58.074Z,101278.65
2023-05-13T12:56:25.705Z,101283.45
2023-05-13T12:58:55.846Z,101282.36
2023-05-13T13:01:23.135Z,101290.41
2023-05-13T13:03:50.458Z,101289.13
2023-05-13T13:06:17.987Z,101288.00
2023-05-13T13:08:45.125Z,101286.79
2023-05-13T13:11:18.641Z,101292.16
2023-05-13T13:13:46.491Z,101285.47
2023-05-13T13:16:13.813Z,101288.34
2023-05-13T13:18:41.957Z,101282.48
2023-05-13T13:21:10.064Z,101285.73
2023-05-13T13:23:37.215Z,101286.50
2023-05-13T13:26:04.564Z,101285.91
2023-05-13T13:28:31.953Z,101287.64
2023-05-13T13:31:00.317Z,101279.14
2023-05-13T13:33:27.620Z,101277.95
2023-05-13T13:35:55.200Z,101270.02
2023-05-13T13:38:22.420Z,101272.96
2023-05-13T13:40:49.668Z,101272.66
2023-05-13T13:43:17.067Z,101272.70
2023-05-13T13:45:44.326Z,101271.11
2023-05-13T13:48:11.645Z,101272.09
2023-05-13T13:50:38.885Z,101272.84
2023-05-13T13:53:06.151Z,101273.06
2023-05-13T13:55:33.273Z,101277.27
2023-05-13T13:58:00.386Z,101273.53
2023-05-13T14:00:27.590Z,101270.61
2023-05-13T14:02:55.127Z,101271.28
2023-05-13T14:05:22.613Z,101277.35
2023-05-13T14:07:54.049Z,101280.34
2023-05-13T14:10:21.558Z,101280.60
2023-05-13T14:12:48.802Z,101273.81
2023-05-13T14:15:16.013Z,101277.05
2023-05-13T14:17:43.413Z,101277.25
2023-05-13T14:20:12.300Z,101272.41
2023-05-13T14:22:39.467Z,101269.63
2023-05-13T14:25:06.767Z,101270.75
2023-05-13T14:27:36.593Z,101267.30
2023-05-13T14:30:04.691Z,101270.86
2023-05-13T14:32:32.134Z,101266.94
2023-05-13T14:34:59.403Z,101259.47
2023-05-13T14:37:26.566Z,101261.98
2023-05-13T14:39:53.656Z,101263.48
2023-05-13T14:42:21.487Z,101268.02
2023-05-13T14:44:48.598Z,101267.96
2023-05-13T14:47:15.862Z,101266.15
2023-05-13T14:49:43.047Z,101269.56
2023-05-13T14:52:10.207Z,101264.52
2023-05-13T14:54:38.334Z,101266.84
2023-05-13T14:57:06.133Z,101260.94
2023-05-13T14:59:33.517Z,101259.87
2023-05-13T15:02:01.510Z,101264.94
2023-05-13T15:04:28.623Z,101262.24
2023-05-13T15:06:59.537Z,101260.77
2023-05-13T15:09:27.126Z,101262.35
2023-05-13T15:11:54.527Z,101265.19
2023-05-13T15:14:30.154Z,101266.55
2023-05-13T15:17:01.380Z,101259.51
2023-05-13T15:19:29.597Z,101262.33
2023-05-13T15:21:56.936Z,101262.52
2023-05-13T15:24:24.308Z,101265.57
2023-05-13T15:26:51.615Z,101264.81
2023-05-13T15:29:18.809Z,101264.98
2023-05-13T15:31:46.673Z,101265.54
2023-05-13T15:34:14.176Z,101267.36
2023-05-13T15:36:41.528Z,101262.25
2023-05-13T15:39:08.618Z,101265.16
2023-05-13T15:41:37.144Z,101265.92
2023-05-13T15:44:04.520Z,101265.90
2023-05-13T15:46:33.859Z,101265.09
2023-05-13T15:49:01.279Z,101262.46
2023-05-13T15:51:28.830Z,101263.94
2023-05-13T15:53:56.358Z,101262.19
2023-05-13T15:56:23.921Z,101261.88
2023-05-13T15:58:52.694Z,101264.79
2023-05-13T16:01:22.600Z,101258.24
2023-05-13T16:03:52.554Z,101259.39
2023-05-13T16:06:23.372Z,101258.85
2023-05-13T16:08:50.888Z,101261.23
2023-05-13T16:11:18.949Z,101261.60
2023-05-13T16:13:47.610Z,101264.98
2023-05-13T16:16:17.570Z,101268.61
2023-05-13T16:18:47.206Z,101267.23
2023-05-13T16:21:18.250Z,101266.87
2023-05-13T16:23:46.459Z,101267.40
2023-05-13T16:26:13.649Z,101267.94
2023-05-13T16:28:41.499Z,101268.86
2023-05-13T16:31:08.758Z,101267.77
2023-05-13T16:33:36.516Z,101268.97
2023-05-13T16:36:03.888Z,101270.20
2023-05-13T16:38:31.317Z,101271.42
2023-05-13T16:40:58.583Z,101271.40
2023-05-13T16:43:25.756Z,101274.27
2023-05-13T16:45:52.874Z,101277.34
2023-05-13T16:48:20.427Z,101281.14
2023-05-13T16:50:47.994Z,101282.04
2023-05-13T16:53:15.173Z,101286.39
2023-05-13T16:55:42.291Z,101291.08
2023-05-13T16:58:09.723Z,101296.30
2023-05-13T17:00:36.849Z,101292.49
2023-05-13T17:03:04.257Z,101297.02
2023-05-13T17:05:32.208Z,101299.56
2023-05-13T17:07:59.318Z,101297.99
2023-05-13T17:10:26.420Z,101295.47
2023-05-13T17:12:53.496Z,101295.80
2023-05-13T17:15:21.577Z,101294.59
2023-05-13T17:17:48.678Z,101294.34
2023-05-13T17:20:16.005Z,101296.29
2023-05-13T17:22:47.499Z,101295.30
2023-05-13T17:25:14.942Z,101299.44
2023-05-13T17:27:42.103Z,101297.27
2023-05-13T17:30:09.421Z,101297.80
2023-05-13T17:32:36.636Z,101299.05
2023-05-13T17:35:04.679Z,101301.14
2023-05-13T17:37:31.768Z,101301.66
2023-05-13T17:40:01.067Z,101299.65
2023-05-13T17:42:33.239Z,101302.67
2023-05-13T17:45:02.253Z,101306.63
2023-05-13T17:47:29.825Z,101307.41
2023-05-13T17:49:56.974Z,101308.76
2023-05-13T17:52:24.088Z,101315.10
2023-05-13T17:54:51.299Z,101314.33
2023-05-13T17:57:18.572Z,101315.96
2023-05-13T17:59:45.797Z,101315.48
2023-05-13T18:02:12.917Z,101318.70
2023-05-13T18:04:41.258Z,101319.73
2023-05-13T18:07:08.462Z,101317.96
2023-05-13T18:09:36.196Z,101323.95
2023-05-13T18:12:03.547Z,101325.41
2023-05-13T18:14:32.509Z,101325.16
2023-05-13T18:16:59.951Z,101328.88
2023-05-13T18:19:27.703Z,101329.02
2023-05-13T18:21:54.905Z,101329.27
2023-05-13T18:24:22.635Z,101328.72
2023-05-13T18:26:49.824Z,101328.73
2023-05-13T18:29:17.000Z,101326.36
2023-05-13T18:31:44.235Z,101326.33
2023-05-13T18:34:11.814Z,101327.66
2023-05-13T18:36:39.056Z,101326.35
2023-05-13T18:39:06.425Z,101325.19
2023-05-13T18:41:33.611Z,101326.01
2023-05-13T18:44:00.731Z,101326.77
2023-05-13T18:46:27.906Z,101324.40
2023-05-13T18:48:55.295Z,101323.70
2023-05-13T18:51:22.589Z,101324.58
2023-05-13T18:53:49.812Z,101320.73
2023-05-13T18:56:17.417Z,101321.48
2023-05-13T18:58:46.922Z,101321.26
2023-05-13T19:01:15.911Z,101322.09
2023-05-13T19:03:43.319Z,101326.45
2023-05-13T19:06:10.561Z,101330.11
2023-05-13T19:08:37.667Z,101331.29
2023-05-13T19:11:04.842Z,101329.05
2023-05-13T19:13:45.768Z,101330.35
2023-05-13T19:16:14.596Z,101327.50
2023-05-13T19:18:42.052Z,101328.60
2023-05-13T19:21:09.637Z,101326.77
2023-05-13T19:23:37.711Z,101324.55
2023-05-13T19:26:04.959Z,101323.61
2023-05-13T19:28:32.735Z,101325.73
2023-05-13T19:31:00.043Z,101328.79
2023-05-13T19:33:27.171Z,101325.24
2023-05-13T19:35:54.463Z,101325.10
2023-05-13T19:38:22.402Z,101324.81
2023-05-13T19:40:52.507Z,101324.42
2023-05-13T19:43:19.954Z,101325.96
2023-05-13T19:45:47.069Z,101325.71
2023-05-13T19:48:14.252Z,101325.02
2023-05-13T19:50:42.427Z,101323.83
2023-05-13T19:53:09.614Z,101323.92
2023-05-13T19:55:36.850Z,101319.15
2023-05-13T19:58:04.104Z,101321.04
2023-05-13T20:00:31.404Z,101321.52
2023-05-13T20:02:58.600Z,101319.63
2023-05-13T20:05:25.855Z,101317.64
2023-05-13T20:07:52.993Z,101316.45
2023-05-13T20:10:20.109Z,101312.04
2023-05-13T20:12:47.267Z,101312.85
2023-05-13T20:15:15.318Z,101307.53
2023-05-13T20:17:43.529Z,101303.66
2023-05-13T20:20:10.960Z,101303.89
2023-05-13T20:22:38.257Z,101307.48
2023-05-13T20:25:05.529Z,101306.71
2023-05-13T20:27:32.857Z,101302.59
2023-05-13T20:30:01.612Z,101305.29
2023-05-13T20:32:28.877Z,101303.36
2023-05-13T20:34:56.238Z,101305.50
2023-05-13T20:37:24.121Z,101303.91
2023-05-13T20:39:51.640Z,101301.98
2023-05-13T20:42:21.765Z,101299.25
2023-05-13T20:44:49.164Z,101299.33
2023-05-13T20:47:16.969Z,101302.14
2023-05-13T20:49:44.787Z,101302.34
2023-05-13T20:52:12.109Z,101303.08
2023-05-13T20:54:39.826Z,101300.94
2023-05-13T20:57:07.067Z,101302.38
2023-05-13T20:59:37.642Z,101304.77
2023-05-13T21:02:04.954Z,101308.51
2023-05-13T21:04:32.264Z,101306.73
2023-05-13T21:07:01.911Z,101308.34
2023-05-13T21:09:29.133Z,101308.74
2023-05-13T21:11:56.345Z,101307.17
2023-05-13T21:14:23.659Z,101308.25
2023-05-13T21:16:50.834Z,101307.55
2023-05-13T21:19:21.769Z,101310.55
2023-05-13T21:21:48.816Z,101304.39
2023-05-13T21:24:19.327Z,101303.55
2023-05-13T21:26:46.558Z,101298.73
2023-05-13T21:29:13.737Z,101299.39
2023-05-13T21:31:41.066Z,101300.05
2023-05-13T21:34:08.601Z,101302.83
2023-05-13T21:36:39.147Z,101298.94
2023-05-13T21:39:06.822Z,101299.36
2023-05-13T21:41:34.041Z,101292.31
2023-05-13T21:44:01.231Z,101293.26
2023-05-13T21:46:28.404Z,101293.33
2023-05-13T21:48:55.555Z,101292.20
2023-05-13T21:51:22.665Z,101291.42
2023-05-13T21:53:49.680Z,101290.52
2023-05-13T21:56:16.868Z,101287.64
2023-05-13T21:58:44.857Z,101288.61
2023-05-13T22:01:11.988Z,101293.77
2023-05-13T22:03:39.220Z,101292.96
2023-05-13T22:06:06.395Z,101290.15
2023-05-13T22:08:34.571Z,101290.96
2023-05-13T22:11:01.623Z,101285.88
2023-05-13T22:13:28.717Z,101284.11
2023-05-13T22:15:56.164Z,101290.29
2023-05-13T22:18:24.043Z,101287.23
2023-05-13T22:20:51.383Z,101287.81
2023-05-13T22:23:18.369Z,101285.64
2023-05-13T22:25:45.441Z,101281.34
2023-05-13T22:28:12.496Z,101282.64
2023-05-13T22:30:39.794Z,101275.98
2023-05-13T22:33:06.857Z,101277.55
2023-05-13T22:35:36.656Z,101277.55
2023-05-13T22:38:04.347Z,101271.20
2023-05-13T22:40:31.393Z,101270.34
2023-05-13T22:42:58.384Z,101271.69
2023-05-13T22:45:25.423Z,101271.05
2023-05-13T22:47:52.497Z,101273.56
2023-05-13T22:50:19.726Z,101268.61
2023-05-13T22:52:46.826Z,101272.33
2023-05-13T22:55:13.836Z,101275.48
2023-05-13T22:57:40.877Z,101272.34
2023-05-13T23:00:08.481Z,101271.02
2023-05-13T23:02:35.587Z,101270.95
2023-05-13T23:05:03.032Z,101265.11
2023-05-13T23:07:30.180Z,101269.83
2023-05-13T23:09:57.391Z,101265.23
2023-05-13T23:12:24.513Z,101263.98
2023-05-13T23:14:52.919Z,101269.18
2023-05-13T23:17:20.376Z,101267.95
2023-05-13T23:19:47.542Z,101266.61
2023-05-13T23:22:14.724Z,101264.75
2023-05-13T23:24:42.620Z,101264.51
2023-05-13T23:27:09.771Z,101260.89
2023-05-13T23:29:36.882Z,101260.09
2023-05-13T23:32:06.573Z,101258.95
2023-05-13T23:34:34.234Z,101260.77
2023-05-13T23:37:01.438Z,101261.17
2023-05-13T23:39:28.576Z,101269.36
2023-05-13T23:41:55.748Z,101268.92
2023-05-13T23:44:23.358Z,101266.52
2023-05-13T23:46:50.712Z,101262.29
2023-05-13T23:49:17.840Z,101259.92
2023-05-13T23:51:45.065Z,101263.96
2023-05-13T23:54:12.260Z,101263.30
2023-05-13T23:56:39.595Z,101265.67
2023-05-13T23:59:08.822Z,101266.39
